»·PEaware :: N477MF KBOI-KBZN

N477MF :: KBOI-KBZN

FLIGHT INFORMATION

Flight Status: Arrived
Operator: Privately registered:
United States
More flights under this callsign
Pilot: Timothy K. (25673)
Aircraft: BEECH AIRCRAFT SUPER KING AIR 350
(B350)
More flights by this aircraft type
Origin: KBOI Boise Air Terminal/Gowen
United States
Destination: KBZN Gallatin
United States
More flights between these airports :: More routes between these airports
Route: BARNR DLN
File this flight plan on PilotEdge
Remarks: Garmin Pilot, ASXP
Altitude:
(Current/Filed)
25,000ft
Speed:
(Current/Filed)
300kts
Departed: 12-Sep-20 06:55 AM
Arrived: 12-Sep-20 07:55 AM
Distance/Time
Traveled:
254nm/1:00
Distance/Time
To Go:
Arrived

Flight Plot

Page will automatically refresh every two minutes.

Flight plan parsing failed; only flown route is shown


Map Options




Map Legend


Flown Route
Filed Route
Departure Airport
Arrival Airport
Navaid (VOR, NDB)
Fix

Horizontal Profiles

Position Reports

Time Latitude Longitude Heading Altitude Ground
Speed
12-Sep-20 06:40 43.570696 -116.230047 94 2835ft 0kts
12-Sep-20 06:41 43.570696 -116.230047 94 2835ft 0kts
12-Sep-20 06:42 43.570696 -116.230047 94 2835ft 0kts
12-Sep-20 06:43 43.570696 -116.230047 94 2835ft 0kts
12-Sep-20 06:44 43.570696 -116.230047 94 2835ft 0kts
12-Sep-20 06:45 43.570696 -116.230047 94 2835ft 0kts
12-Sep-20 06:46 43.570696 -116.230047 94 2835ft 0kts
12-Sep-20 06:47 43.570696 -116.230047 95 2835ft 0kts
12-Sep-20 06:48 43.570696 -116.230047 95 2835ft 0kts
12-Sep-20 06:49 43.570696 -116.230047 95 2835ft 0kts
12-Sep-20 06:50 43.570209 -116.230528 200 2835ft 12kts
12-Sep-20 06:51 43.569717 -116.231915 294 2834ft 13kts
12-Sep-20 06:52 43.570960 -116.236095 245 2826ft 6kts
12-Sep-20 06:53 43.570930 -116.236169 239 2826ft 0kts
12-Sep-20 06:54 43.569720 -116.235526 114 2829ft 47kts
12-Sep-20 06:55 43.552863 -116.188278 115 3969ft 180kts
12-Sep-20 06:56 43.545209 -116.132694 36 6842ft 164kts
12-Sep-20 06:57 43.584652 -116.102609 29 9348ft 166kts
12-Sep-20 06:58 43.625030 -116.070004 29 11527ft 173kts
12-Sep-20 06:59 43.666479 -116.033751 29 13465ft 180kts
12-Sep-20 07:00 43.707286 -115.991689 41 15237ft 189kts
12-Sep-20 07:01 43.742388 -115.936401 44 16854ft 194kts
12-Sep-20 07:02 43.778477 -115.878020 45 17875ft 220kts
12-Sep-20 07:03 43.820269 -115.809890 46 19214ft 204kts
12-Sep-20 07:04 43.856023 -115.751958 48 20559ft 202kts
12-Sep-20 07:05 43.893003 -115.691726 49 21580ft 209kts
12-Sep-20 07:06 43.931158 -115.629317 49 22852ft 214kts
12-Sep-20 07:07 43.970095 -115.565563 49 24160ft 219kts
12-Sep-20 07:08 44.007123 -115.497145 57 25127ft 235kts
12-Sep-20 07:09 44.041824 -115.418156 58 25123ft 276kts
12-Sep-20 07:10 44.083486 -115.323256 58 25176ft 297kts
12-Sep-20 07:11 44.127734 -115.222641 55 25129ft 315kts
12-Sep-20 07:12 44.173911 -115.117174 55 25195ft 321kts
12-Sep-20 07:13 44.220410 -115.010521 55 25284ft 323kts
12-Sep-20 07:14 44.267192 -114.902921 55 25340ft 325kts
12-Sep-20 07:15 44.314123 -114.794564 55 25339ft 327kts
12-Sep-20 07:16 44.361109 -114.685657 55 25306ft 329kts
12-Sep-20 07:18 44.408257 -114.575950 55 25260ft 330kts
12-Sep-20 07:19 44.455688 -114.465180 55 25215ft 331kts
12-Sep-20 07:20 44.502803 -114.354699 55 25185ft 331kts
12-Sep-20 07:21 44.549865 -114.243920 55 25178ft 330kts
12-Sep-20 07:22 44.596598 -114.133501 55 25174ft 329kts
12-Sep-20 07:23 44.642960 -114.023505 55 25255ft 327kts
12-Sep-20 07:24 44.674409 -113.948683 55 25252ft 328kts
12-Sep-20 07:25 44.720659 -113.838270 55 25247ft 329kts
12-Sep-20 07:26 44.766966 -113.727261 55 25242ft 329kts
12-Sep-20 07:27 44.813406 -113.615532 55 25154ft 333kts
12-Sep-20 07:28 44.859963 -113.503021 54 25165ft 333kts
12-Sep-20 07:29 44.906507 -113.390096 54 25166ft 333kts
12-Sep-20 07:30 44.952967 -113.276938 55 25160ft 333kts
12-Sep-20 07:31 44.999238 -113.163842 55 25156ft 332kts
12-Sep-20 07:32 45.045297 -113.050744 55 25148ft 332kts
12-Sep-20 07:32 45.083598 -112.956359 55 25153ft 332kts
12-Sep-20 07:34 45.137205 -112.823722 54 25177ft 333kts
12-Sep-20 07:35 45.183124 -112.709589 54 25185ft 334kts
12-Sep-20 07:35 45.221509 -112.613851 54 24946ft 337kts
12-Sep-20 07:37 45.275387 -112.477490 55 23829ft 341kts
12-Sep-20 07:38 45.321028 -112.358799 55 22676ft 344kts
12-Sep-20 07:38 45.359187 -112.259485 56 21687ft 345kts
12-Sep-20 07:39 45.405054 -112.139701 56 20488ft 344kts
12-Sep-20 07:41 45.458239 -112.000143 56 19093ft 343kts
12-Sep-20 07:41 45.495937 -111.900881 56 18103ft 342kts
12-Sep-20 07:42 45.540958 -111.781898 56 16921ft 341kts
12-Sep-20 07:43 45.585877 -111.663129 57 15900ft 333kts
12-Sep-20 07:44 45.632024 -111.554712 30 15533ft 308kts
12-Sep-20 07:45 45.708047 -111.516168 11 14482ft 279kts
12-Sep-20 07:46 45.779525 -111.484349 11 13351ft 260kts
12-Sep-20 07:47 45.847589 -111.454744 11 12018ft 255kts
12-Sep-20 07:48 45.905732 -111.402603 48 10262ft 249kts
12-Sep-20 07:49 45.921413 -111.325922 140 8652ft 196kts
12-Sep-20 07:50 45.878888 -111.293506 152 6755ft 157kts
12-Sep-20 07:51 45.847405 -111.252421 137 6099ft 150kts
12-Sep-20 07:52 45.818570 -111.209479 133 5383ft 146kts
12-Sep-20 07:53 45.794572 -111.175433 138 4597ft 106kts
12-Sep-20 07:54 45.781434 -111.157255 135 4446ft 28kts
12-Sep-20 07:55 45.778882 -111.155887 226 4453ft 0kts
12-Sep-20 07:56 45.778457 -111.156526 226 4454ft 2kts
12-Sep-20 07:57 45.776615 -111.155844 203 4457ft 4kts
12-Sep-20 07:58 45.776495 -111.156012 226 4457ft 0kts

Navigation Log

Ident Type
Flight plan parsing failed, navigation log unavailable